createdAt,value
2022-11-24T00:01:14.767Z,100128.63
2022-11-24T00:03:41.159Z,100142.75
2022-11-24T00:06:08.493Z,100138.22
2022-11-24T00:08:35.186Z,100130.81
2022-11-24T00:11:05.575Z,100140.09
2022-11-24T00:13:32.268Z,100145.03
2022-11-24T00:16:08.626Z,100144.75
2022-11-24T00:18:35.028Z,100138.72
2022-11-24T00:21:01.324Z,100130.34
2022-11-24T00:23:27.626Z,100141.19
2022-11-24T00:25:53.919Z,100146.34
2022-11-24T00:28:20.205Z,100139.31
2022-11-24T00:30:46.630Z,100146.41
2022-11-24T00:33:12.959Z,100146.34
2022-11-24T00:35:39.271Z,100151.91
2022-11-24T00:38:05.663Z,100143.66
2022-11-24T00:40:35.014Z,100139.47
2022-11-24T00:43:01.566Z,100147.16
2022-11-24T00:45:27.855Z,100148.78
2022-11-24T00:47:54.161Z,100142.25
2022-11-24T00:50:21.180Z,100149.25
2022-11-24T00:52:47.477Z,100149.00
2022-11-24T00:55:13.759Z,100150.75
2022-11-24T00:57:40.127Z,100156.38
2022-11-24T01:00:06.879Z,100164.94
2022-11-24T01:02:33.266Z,100166.94
2022-11-24T01:04:59.622Z,100166.75
2022-11-24T01:07:25.941Z,100159.69
2022-11-24T01:09:52.241Z,100170.72
2022-11-24T01:12:18.638Z,100165.94
2022-11-24T01:14:44.935Z,100170.25
2022-11-24T01:17:11.231Z,100176.44
2022-11-24T01:19:37.538Z,100186.41
2022-11-24T01:22:03.891Z,100188.00
2022-11-24T01:24:30.194Z,100190.69
2022-11-24T01:26:56.494Z,100189.81
2022-11-24T01:29:22.800Z,100190.91
2022-11-24T01:31:49.154Z,100184.75
2022-11-24T01:34:15.499Z,100189.53
2022-11-24T01:36:41.843Z,100196.69
2022-11-24T01:39:08.148Z,100188.59
2022-11-24T01:41:34.505Z,100193.72
2022-11-24T01:44:00.842Z,100197.66
2022-11-24T01:46:30.204Z,100187.81
2022-11-24T01:49:08.694Z,100199.13
2022-11-24T01:51:36.195Z,100204.94
2022-11-24T01:54:07.179Z,100206.56
2022-11-24T01:56:33.510Z,100211.13
2022-11-24T01:59:00.173Z,100205.97
2022-11-24T02:01:26.745Z,100218.50
2022-11-24T02:03:53.215Z,100211.69
2022-11-24T02:06:21.149Z,100221.25
2022-11-24T02:08:50.144Z,100226.09
2022-11-24T02:11:16.429Z,100229.19
2022-11-24T02:13:42.738Z,100230.50
2022-11-24T02:16:10.088Z,100232.22
2022-11-24T02:18:36.939Z,100239.84
2022-11-24T02:21:03.257Z,100223.00
2022-11-24T02:23:31.515Z,100233.06
2022-11-24T02:26:16.541Z,100225.47
2022-11-24T02:28:42.834Z,100233.19
2022-11-24T02:31:09.240Z,100242.00
2022-11-24T02:33:35.643Z,100239.59
2022-11-24T02:36:02.079Z,100244.50
2022-11-24T02:38:34.803Z,100243.94
2022-11-24T02:41:03.160Z,100243.81
2022-11-24T02:43:30.783Z,100248.00
2022-11-24T02:45:57.239Z,100253.22
2022-11-24T02:48:23.710Z,100263.38
2022-11-24T02:50:49.998Z,100255.13
2022-11-24T02:53:16.348Z,100265.56
2022-11-24T02:55:42.652Z,100260.16
2022-11-24T02:58:08.951Z,100264.88
2022-11-24T03:00:35.254Z,100258.47
2022-11-24T03:03:01.600Z,100258.75
2022-11-24T03:05:28.033Z,100266.31
2022-11-24T03:07:54.357Z,100265.38
2022-11-24T03:10:20.930Z,100264.28
2022-11-24T03:12:47.222Z,100272.91
2022-11-24T03:15:13.579Z,100273.47
2022-11-24T03:17:39.968Z,100272.91
2022-11-24T03:20:06.458Z,100280.72
2022-11-24T03:22:32.777Z,100275.28
2022-11-24T03:24:59.225Z,100279.66
2022-11-24T03:27:25.592Z,100291.09
2022-11-24T03:29:51.894Z,100288.81
2022-11-24T03:32:18.194Z,100281.44
2022-11-24T03:34:44.622Z,100293.00
2022-11-24T03:37:10.947Z,100290.03
2022-11-24T03:39:37.237Z,100288.91
2022-11-24T03:42:03.531Z,100296.94
2022-11-24T03:44:29.828Z,100302.66
2022-11-24T03:46:56.129Z,100297.50
2022-11-24T03:49:22.495Z,100285.78
2022-11-24T03:51:48.831Z,100294.34
2022-11-24T03:54:15.373Z,100297.78
2022-11-24T03:56:41.693Z,100302.31
2022-11-24T03:59:08.668Z,100297.88
2022-11-24T04:01:35.078Z,100299.84
2022-11-24T04:04:01.419Z,100299.03
2022-11-24T04:06:27.703Z,100311.25
2022-11-24T04:08:54.054Z,100312.53
2022-11-24T04:11:39.072Z,100314.53
2022-11-24T04:14:10.474Z,100308.59
2022-11-24T04:16:39.634Z,100311.28
2022-11-24T04:19:06.131Z,100309.22
2022-11-24T04:21:32.426Z,100323.47
2022-11-24T04:23:58.783Z,100327.66
2022-11-24T04:26:25.073Z,100320.56
2022-11-24T04:28:51.366Z,100335.72
2022-11-24T04:31:18.437Z,100326.75
2022-11-24T04:33:44.819Z,100344.72
2022-11-24T04:36:11.165Z,100350.19
2022-11-24T04:39:23.424Z,100338.72
2022-11-24T04:41:23.740Z,100343.66
2022-11-24T04:43:50.562Z,100349.13
2022-11-24T04:46:17.082Z,100356.84
2022-11-24T04:48:43.488Z,100357.31
2022-11-24T04:51:10.001Z,100354.09
2022-11-24T04:53:36.319Z,100354.66
2022-11-24T04:56:06.238Z,100345.34
2022-11-24T04:58:32.662Z,100363.25
2022-11-24T05:00:58.955Z,100361.03
2022-11-24T05:03:25.242Z,100371.00
2022-11-24T05:05:51.545Z,100373.03
2022-11-24T05:08:17.835Z,100378.72
2022-11-24T05:10:44.194Z,100375.34
2022-11-24T05:13:10.877Z,100384.84
2022-11-24T05:15:37.897Z,100386.25
2022-11-24T05:18:05.879Z,100368.56
2022-11-24T05:20:32.169Z,100383.94
2022-11-24T05:23:05.198Z,100379.25
2022-11-24T05:25:31.739Z,100385.28
2022-11-24T05:28:01.785Z,100404.31
2022-11-24T05:30:28.293Z,100401.78
2022-11-24T05:32:54.637Z,100393.03
2022-11-24T05:35:21.562Z,100403.34
2022-11-24T05:37:47.868Z,100400.41
2022-11-24T05:40:14.169Z,100410.13
2022-11-24T05:42:46.091Z,100404.44
2022-11-24T05:45:22.454Z,100419.44
2022-11-24T05:47:49.191Z,100414.94
2022-11-24T05:50:16.120Z,100424.75
2022-11-24T05:52:42.492Z,100424.75
2022-11-24T05:55:09.300Z,100427.41
2022-11-24T05:57:35.922Z,100436.94
2022-11-24T06:00:03.848Z,100431.34
2022-11-24T06:02:30.246Z,100432.25
2022-11-24T06:04:56.638Z,100431.91
2022-11-24T06:07:22.957Z,100426.09
2022-11-24T06:09:49.250Z,100433.66
2022-11-24T06:12:15.602Z,100438.03
2022-11-24T06:14:41.903Z,100432.72
2022-11-24T06:17:09.006Z,100429.22
2022-11-24T06:19:38.717Z,100440.28
2022-11-24T06:22:08.121Z,100443.66
2022-11-24T06:24:34.523Z,100443.28
2022-11-24T06:27:01.046Z,100443.41
2022-11-24T06:29:28.054Z,100443.66
2022-11-24T06:31:54.418Z,100450.84
2022-11-24T06:34:20.760Z,100449.44
2022-11-24T06:36:47.053Z,100458.66
2022-11-24T06:39:13.342Z,100451.91
2022-11-24T06:41:39.643Z,100454.53
2022-11-24T06:44:06.049Z,100461.78
2022-11-24T06:46:32.346Z,100467.59
2022-11-24T06:48:59.787Z,100473.81
2022-11-24T06:51:26.894Z,100479.91
2022-11-24T06:53:53.356Z,100473.09
2022-11-24T06:56:20.292Z,100477.81
2022-11-24T06:58:47.442Z,100478.28
2022-11-24T07:01:14.556Z,100478.47
2022-11-24T07:03:40.871Z,100493.72
2022-11-24T07:06:07.172Z,100491.97
2022-11-24T07:08:33.460Z,100495.72
2022-11-24T07:11:04.204Z,100497.38
2022-11-24T07:13:30.491Z,100501.03
2022-11-24T07:15:56.839Z,100507.03
2022-11-24T07:18:23.175Z,100513.63
2022-11-24T07:20:49.519Z,100514.94
2022-11-24T07:23:15.811Z,100516.19
2022-11-24T07:25:42.118Z,100522.31
2022-11-24T07:28:08.645Z,100524.41
2022-11-24T07:30:35.013Z,100524.59
2022-11-24T07:33:01.690Z,100519.69
2022-11-24T07:35:28.137Z,100529.38
2022-11-24T07:37:55.314Z,100543.72
2022-11-24T07:40:21.669Z,100550.28
2022-11-24T07:42:48.126Z,100552.97
2022-11-24T07:45:14.413Z,100560.06
2022-11-24T07:47:40.926Z,100559.06
2022-11-24T07:50:09.524Z,100559.53
2022-11-24T07:52:36.213Z,100570.41
2022-11-24T07:55:02.653Z,100559.16
2022-11-24T07:57:29.106Z,100568.03
2022-11-24T07:59:55.656Z,100568.38
2022-11-24T08:02:21.943Z,100580.16
2022-11-24T08:04:48.226Z,100580.63
2022-11-24T08:07:14.563Z,100584.50
2022-11-24T08:09:40.963Z,100576.91
2022-11-24T08:12:07.264Z,100593.72
2022-11-24T08:14:33.846Z,100592.16
2022-11-24T08:17:00.420Z,100590.22
2022-11-24T08:19:26.830Z,100583.47
2022-11-24T08:21:53.133Z,100582.56
2022-11-24T08:24:19.494Z,100588.22
2022-11-24T08:26:45.881Z,100597.91
2022-11-24T08:29:12.183Z,100596.28
2022-11-24T08:31:38.778Z,100610.50
2022-11-24T08:34:05.470Z,100600.41
2022-11-24T08:36:31.908Z,100596.00
2022-11-24T08:38:59.258Z,100602.22
2022-11-24T08:41:25.892Z,100599.13
2022-11-24T08:43:52.427Z,100602.34
2022-11-24T08:46:19.114Z,100599.91
2022-11-24T08:48:50.725Z,100608.50
2022-11-24T08:51:18.130Z,100611.72
2022-11-24T08:53:44.472Z,100601.25
2022-11-24T08:56:11.080Z,100633.94
2022-11-24T08:58:37.833Z,100635.31
2022-11-24T09:01:10.456Z,100649.63
2022-11-24T09:03:37.679Z,100659.59
2022-11-24T09:06:04.198Z,100659.47
2022-11-24T09:08:30.787Z,100658.91
2022-11-24T09:11:03.892Z,100669.91
2022-11-24T09:13:30.241Z,100671.63
2022-11-24T09:15:56.592Z,100677.03
2022-11-24T09:18:27.482Z,100678.44
2022-11-24T09:21:05.280Z,100674.50
2022-11-24T09:23:31.577Z,100685.88
2022-11-24T09:26:02.867Z,100685.03
2022-11-24T09:28:29.170Z,100690.56
2022-11-24T09:30:55.516Z,100694.72
2022-11-24T09:33:21.835Z,100703.53
2022-11-24T09:35:49.749Z,100708.59
2022-11-24T09:38:16.093Z,100718.28
2022-11-24T09:40:42.377Z,100723.09
2022-11-24T09:43:12.735Z,100732.00
2022-11-24T09:46:03.797Z,100729.00
2022-11-24T09:48:27.126Z,100721.16
2022-11-24T09:50:53.618Z,100727.59
2022-11-24T09:53:27.701Z,100728.06
2022-11-24T09:55:55.309Z,100737.88
2022-11-24T09:58:39.032Z,100736.47
2022-11-24T10:01:12.212Z,100739.66
2022-11-24T10:03:39.727Z,100741.53
2022-11-24T10:06:11.327Z,100746.25
2022-11-24T10:09:00.340Z,100743.72
2022-11-24T10:11:32.065Z,100744.78
2022-11-24T10:14:03.175Z,100752.31
2022-11-24T10:16:42.757Z,100755.81
2022-11-24T10:19:15.208Z,100757.19
2022-11-24T10:21:41.445Z,100757.84
2022-11-24T10:24:10.725Z,100758.38
2022-11-24T10:26:37.861Z,100754.97
2022-11-24T10:29:15.927Z,100754.19
2022-11-24T10:31:43.138Z,100756.00
2022-11-24T10:34:13.832Z,100760.03
2022-11-24T10:36:43.961Z,100755.72
2022-11-24T10:39:12.549Z,100747.94
2022-11-24T10:41:40.418Z,100764.88
2022-11-24T10:44:10.999Z,100762.25
2022-11-24T10:46:39.486Z,100767.56
2022-11-24T10:49:06.059Z,100763.25
2022-11-24T10:51:51.268Z,100760.59
2022-11-24T10:54:19.170Z,100765.97
2022-11-24T10:56:46.044Z,100765.03
2022-11-24T10:59:32.259Z,100773.78
2022-11-24T11:01:59.128Z,100779.69
2022-11-24T11:04:32.977Z,100780.97
2022-11-24T11:07:09.351Z,100782.88
2022-11-24T11:09:35.865Z,100783.63
2022-11-24T11:12:35.948Z,100791.81
2022-11-24T11:14:55.954Z,100793.41
2022-11-24T11:17:38.179Z,100789.41
2022-11-24T11:20:25.623Z,100797.38
2022-11-24T11:22:52.409Z,100797.13
2022-11-24T11:25:32.676Z,100800.91
2022-11-24T11:28:18.516Z,100801.72
2022-11-24T11:31:18.013Z,100808.09
2022-11-24T11:34:03.749Z,100799.41
2022-11-24T11:36:31.712Z,100800.41
2022-11-24T11:38:58.232Z,100806.72
2022-11-24T11:41:26.777Z,100808.22
2022-11-24T11:43:56.842Z,100804.66
2022-11-24T11:46:23.467Z,100812.63
2022-11-24T11:48:49.842Z,100811.25
2022-11-24T11:51:28.335Z,100813.72
2022-11-24T11:54:04.844Z,100807.84
2022-11-24T11:56:33.122Z,100807.34
2022-11-24T11:58:59.422Z,100821.16
2022-11-24T12:01:35.840Z,100807.75
2022-11-24T12:04:23.110Z,100816.19
2022-11-24T12:07:04.550Z,100820.19
2022-11-24T12:09:49.528Z,100821.03
2022-11-24T12:12:34.702Z,100833.09
2022-11-24T12:15:16.486Z,100831.38
2022-11-24T12:17:45.547Z,100834.88
2022-11-24T12:20:24.090Z,100826.22
2022-11-24T12:23:02.856Z,100833.75
2022-11-24T12:25:40.100Z,100830.34
2022-11-24T12:28:21.706Z,100825.75
2022-11-24T12:31:04.644Z,100845.06
2022-11-24T12:33:47.548Z,100843.78
2022-11-24T12:36:24.857Z,100848.06
2022-11-24T12:39:07.955Z,100850.38
2022-11-24T12:41:42.931Z,100851.34
2022-11-24T12:44:29.671Z,100854.44
2022-11-24T12:46:57.966Z,100856.25
2022-11-24T12:49:28.505Z,100853.09
2022-11-24T12:51:56.173Z,100855.47
2022-11-24T12:54:22.463Z,100868.34
2022-11-24T12:56:59.832Z,100874.53
2022-11-24T12:59:32.783Z,100879.75
2022-11-24T13:02:03.321Z,100879.25
2022-11-24T13:04:35.898Z,100878.78
2022-11-24T13:07:15.832Z,100886.44
2022-11-24T13:10:08.388Z,100882.84
2022-11-24T13:12:34.724Z,100887.50
2022-11-24T13:15:01.038Z,100889.72
2022-11-24T13:17:34.363Z,100888.72
2022-11-24T13:20:14.898Z,100888.44
2022-11-24T13:22:44.994Z,100886.13
2022-11-24T13:25:14.761Z,100897.13
2022-11-24T13:27:42.471Z,100898.38
2022-11-24T13:30:27.550Z,100889.25
2022-11-24T13:32:59.180Z,100894.03
2022-11-24T13:35:25.555Z,100898.69
2022-11-24T13:37:52.701Z,100893.38
2022-11-24T13:40:22.430Z,100904.16
2022-11-24T13:42:54.662Z,100903.69
2022-11-24T13:45:49.566Z,100899.84
2022-11-24T13:48:18.893Z,100898.69
2022-11-24T13:50:51.573Z,100900.31
2022-11-24T13:53:22.211Z,100912.22
2022-11-24T13:55:53.961Z,100919.69
2022-11-24T13:58:27.696Z,100916.22
2022-11-24T14:01:05.766Z,100916.94
2022-11-24T14:06:42.446Z,100925.28
2022-11-24T14:09:24.204Z,100928.84
2022-11-24T14:12:09.265Z,100935.78
2022-11-24T14:14:35.795Z,100939.50
2022-11-24T14:17:22.577Z,100939.56
2022-11-24T14:19:49.625Z,100937.44
2022-11-24T14:22:23.089Z,100933.66
2022-11-24T14:24:53.250Z,100937.78
2022-11-24T14:27:20.362Z,100932.59
2022-11-24T14:29:54.528Z,100934.47
2022-11-24T14:32:21.887Z,100935.81
2022-11-24T14:34:48.214Z,100938.16
2022-11-24T14:37:14.572Z,100934.50
2022-11-24T14:39:41.209Z,100942.16
2022-11-24T14:42:18.674Z,100946.63
2022-11-24T14:44:56.343Z,100953.78
2022-11-24T14:47:30.583Z,100944.34
2022-11-24T14:49:58.378Z,100958.06
2022-11-24T14:52:24.857Z,100957.53
2022-11-24T14:54:52.061Z,100975.63
2022-11-24T14:57:26.046Z,100969.81
2022-11-24T15:00:06.207Z,100964.38
2022-11-24T15:02:55.959Z,100971.38
2022-11-24T15:05:22.992Z,100967.03
2022-11-24T15:07:50.020Z,100972.00
2022-11-24T15:10:33.575Z,100966.59
2022-11-24T15:13:00.508Z,100975.66
2022-11-24T15:15:31.449Z,100975.00
2022-11-24T15:17:58.419Z,100971.06
2022-11-24T15:20:32.008Z,100982.38
2022-11-24T15:23:13.273Z,100988.66
2022-11-24T15:25:39.616Z,100982.03
2022-11-24T15:28:06.075Z,100988.00
2022-11-24T15:30:33.261Z,100988.66
2022-11-24T15:32:59.634Z,100992.50
2022-11-24T15:35:28.464Z,100991.31
2022-11-24T15:37:54.772Z,100999.97
2022-11-24T15:40:21.057Z,101003.31
2022-11-24T15:42:52.169Z,101014.56
2022-11-24T15:45:18.851Z,101013.22
2022-11-24T15:47:45.159Z,101018.69
2022-11-24T15:50:11.636Z,101026.13
2022-11-24T15:52:37.985Z,101018.69
2022-11-24T15:55:04.426Z,101019.88
2022-11-24T15:57:32.261Z,101022.81
2022-11-24T15:59:58.568Z,101027.16
2022-11-24T16:02:25.387Z,101031.59
2022-11-24T16:04:51.872Z,101044.16
2022-11-24T16:07:18.225Z,101044.34
2022-11-24T16:09:44.560Z,101051.13
2022-11-24T16:12:10.883Z,101045.13
2022-11-24T16:14:37.460Z,101042.97
2022-11-24T16:17:03.896Z,101032.53
2022-11-24T16:19:30.194Z,101027.75
2022-11-24T16:21:56.482Z,101033.06
2022-11-24T16:24:22.823Z,101029.41
2022-11-24T16:26:49.282Z,101034.88
2022-11-24T16:29:15.626Z,101045.63
2022-11-24T16:31:43.467Z,101036.03
2022-11-24T16:34:10.072Z,101039.00
2022-11-24T16:36:36.535Z,101038.53
2022-11-24T16:39:02.863Z,101040.16
2022-11-24T16:41:29.151Z,101042.47
2022-11-24T16:43:55.495Z,101055.38
2022-11-24T16:46:22.129Z,101055.56
2022-11-24T16:48:49.686Z,101059.03
2022-11-24T16:51:16.038Z,101063.13
2022-11-24T16:53:42.468Z,101075.25
2022-11-24T16:56:09.017Z,101074.75
2022-11-24T16:58:39.132Z,101082.03
2022-11-24T17:01:07.317Z,101080.34
2022-11-24T17:03:36.982Z,101079.72
2022-11-24T17:06:03.649Z,101085.81
2022-11-24T17:08:30.541Z,101081.19
2022-11-24T17:10:56.854Z,101078.66
2022-11-24T17:13:24.157Z,101081.81
2022-11-24T17:15:54.089Z,101076.53
2022-11-24T17:18:25.160Z,101082.84
2022-11-24T17:20:51.989Z,101076.06
2022-11-24T17:23:19.486Z,101081.88
2022-11-24T17:25:45.933Z,101078.16
2022-11-24T17:28:12.320Z,101081.50
2022-11-24T17:30:38.750Z,101079.03
2022-11-24T17:33:05.121Z,101075.31
2022-11-24T17:35:33.511Z,101068.06
2022-11-24T17:38:00.811Z,101077.50
2022-11-24T17:40:29.045Z,101075.19
2022-11-24T17:42:59.631Z,101079.47
2022-11-24T17:45:27.011Z,101084.44
2022-11-24T17:47:53.351Z,101079.31
2022-11-24T17:50:25.213Z,101087.56
2022-11-24T17:52:52.262Z,101087.44
2022-11-24T17:55:18.569Z,101082.50
2022-11-24T17:57:44.864Z,101088.31
2022-11-24T18:00:11.628Z,101085.50
2022-11-24T18:02:38.494Z,101091.59
2022-11-24T18:05:04.979Z,101085.34
2022-11-24T18:07:31.434Z,101089.63
2022-11-24T18:09:57.843Z,101087.16
2022-11-24T18:12:24.201Z,101091.66
2022-11-24T18:14:50.575Z,101091.41
2022-11-24T18:17:16.863Z,101089.81
2022-11-24T18:19:43.214Z,101096.56
2022-11-24T18:22:09.520Z,101096.72
2022-11-24T18:24:35.868Z,101102.38
2022-11-24T18:27:02.251Z,101098.41
2022-11-24T18:29:28.546Z,101101.25
2022-11-24T18:31:54.922Z,101099.88
2022-11-24T18:34:24.602Z,101105.50
2022-11-24T18:36:52.629Z,101106.97
2022-11-24T18:39:19.266Z,101109.81
2022-11-24T18:41:45.925Z,101111.13
2022-11-24T18:44:12.310Z,101100.19
2022-11-24T18:46:39.012Z,101113.13
2022-11-24T18:49:05.321Z,101109.16
2022-11-24T18:51:31.625Z,101117.41
2022-11-24T18:53:58.176Z,101114.91
2022-11-24T18:56:24.700Z,101115.09
2022-11-24T18:58:54.396Z,101114.75
2022-11-24T19:01:21.599Z,101114.78
2022-11-24T19:03:49.425Z,101111.81
2022-11-24T19:06:17.259Z,101116.91
2022-11-24T19:08:43.622Z,101122.06
2022-11-24T19:11:39.501Z,101122.91
2022-11-24T19:14:07.054Z,101117.72
2022-11-24T19:16:33.530Z,101118.44
2022-11-24T19:19:00.275Z,101124.72
2022-11-24T19:21:27.117Z,101122.03
2022-11-24T19:23:53.398Z,101123.88
2022-11-24T19:26:19.726Z,101115.44
2022-11-24T19:28:46.087Z,101116.44
2022-11-24T19:31:13.771Z,101120.78
2022-11-24T19:33:40.480Z,101130.69
2022-11-24T19:36:07.929Z,101142.44
2022-11-24T19:38:34.799Z,101143.00
2022-11-24T19:41:02.095Z,101144.25
2022-11-24T19:43:28.556Z,101126.22
2022-11-24T19:45:55.090Z,101133.03
2022-11-24T19:48:21.506Z,101133.56
2022-11-24T19:50:47.825Z,101129.41
2022-11-24T19:53:14.120Z,101125.47
2022-11-24T19:55:40.697Z,101127.63
2022-11-24T19:58:07.066Z,101124.31
2022-11-24T20:00:33.367Z,101126.13
2022-11-24T20:02:59.747Z,101122.16
2022-11-24T20:05:26.130Z,101134.09
2022-11-24T20:07:52.509Z,101133.56
2022-11-24T20:10:18.834Z,101133.44
2022-11-24T20:12:45.124Z,101147.66
2022-11-24T20:15:11.458Z,101144.84
2022-11-24T20:17:37.806Z,101148.97
2022-11-24T20:20:04.591Z,101150.47
2022-11-24T20:22:31.638Z,101138.31
2022-11-24T20:24:58.093Z,101135.13
2022-11-24T20:27:24.420Z,101134.97
2022-11-24T20:29:50.773Z,101131.81
2022-11-24T20:32:20.133Z,101132.88
2022-11-24T20:34:46.622Z,101139.50
2022-11-24T20:37:13.564Z,101146.66
2022-11-24T20:39:40.189Z,101150.47
2022-11-24T20:42:07.224Z,101147.81
2022-11-24T20:44:33.754Z,101164.28
2022-11-24T20:47:01.202Z,101168.75
2022-11-24T20:49:27.662Z,101168.56
2022-11-24T20:51:54.439Z,101178.97
2022-11-24T20:54:20.870Z,101185.94
2022-11-24T20:56:47.398Z,101183.97
2022-11-24T20:59:14.542Z,101192.06
2022-11-24T21:01:42.500Z,101199.72
2022-11-24T21:04:10.115Z,101209.50
2022-11-24T21:06:36.420Z,101206.22
2022-11-24T21:09:04.101Z,101203.22
2022-11-24T21:11:30.889Z,101207.31
2022-11-24T21:13:57.271Z,101213.00
2022-11-24T21:16:24.549Z,101210.16
2022-11-24T21:18:52.572Z,101217.81
2022-11-24T21:21:19.629Z,101215.84
2022-11-24T21:23:46.212Z,101211.84
2022-11-24T21:26:16.559Z,101218.47
2022-11-24T21:28:43.880Z,101214.97
2022-11-24T21:31:11.544Z,101224.81
2022-11-24T21:33:41.472Z,101220.38
2022-11-24T21:36:07.973Z,101226.50
2022-11-24T21:38:34.388Z,101234.78
2022-11-24T21:41:01.360Z,101235.09
2022-11-24T21:43:30.638Z,101246.72
2022-11-24T21:46:00.829Z,101247.03
2022-11-24T21:48:27.161Z,101243.78
2022-11-24T21:50:53.508Z,101255.66
2022-11-24T21:53:19.807Z,101243.38
2022-11-24T21:55:55.908Z,101243.28
2022-11-24T21:58:22.567Z,101246.94
2022-11-24T22:00:49.102Z,101252.94
2022-11-24T22:03:15.429Z,101259.59
2022-11-24T22:05:41.730Z,101253.63
2022-11-24T22:08:08.032Z,101255.44
2022-11-24T22:10:34.341Z,101259.25
2022-11-24T22:13:00.668Z,101250.94
2022-11-24T22:15:26.960Z,101257.09
2022-11-24T22:17:53.259Z,101260.84
2022-11-24T22:20:19.567Z,101249.22
2022-11-24T22:22:45.930Z,101250.56
2022-11-24T22:25:12.215Z,101259.69
2022-11-24T22:27:38.541Z,101249.59
2022-11-24T22:30:05.928Z,101248.44
2022-11-24T22:32:32.302Z,101253.59
2022-11-24T22:34:58.579Z,101249.50
2022-11-24T22:37:24.860Z,101251.03
2022-11-24T22:39:51.229Z,101251.09
2022-11-24T22:42:17.516Z,101247.44
2022-11-24T22:44:43.809Z,101247.63
2022-11-24T22:47:10.106Z,101239.78
2022-11-24T22:49:36.565Z,101245.53
2022-11-24T22:52:02.975Z,101242.22
2022-11-24T22:54:29.325Z,101236.50
2022-11-24T22:56:55.606Z,101239.47
2022-11-24T22:59:25.161Z,101243.28
2022-11-24T23:01:53.864Z,101238.09
2022-11-24T23:04:20.192Z,101234.19
2022-11-24T23:06:46.520Z,101231.88
2022-11-24T23:09:12.889Z,101227.81
2022-11-24T23:11:39.895Z,101228.97
2022-11-24T23:14:07.255Z,101232.03
2022-11-24T23:16:33.631Z,101235.78
2022-11-24T23:18:59.938Z,101236.94
2022-11-24T23:21:27.171Z,101230.09
2022-11-24T23:23:53.521Z,101229.69
2022-11-24T23:26:20.683Z,101232.25
2022-11-24T23:28:46.988Z,101242.00
2022-11-24T23:31:17.367Z,101249.28
2022-11-24T23:33:43.938Z,101249.97
2022-11-24T23:36:14.399Z,101250.66
2022-11-24T23:38:40.856Z,101246.84
2022-11-24T23:41:09.882Z,101242.03
2022-11-24T23:43:36.808Z,101249.63
2022-11-24T23:46:06.923Z,101247.22
2022-11-24T23:48:33.397Z,101243.84
2022-11-24T23:51:03.650Z,101239.75
2022-11-24T23:53:31.107Z,101240.56
2022-11-24T23:55:57.582Z,101228.56
2022-11-24T23:58:23.921Z,101235.84
